Jayess, Mississippi
Current Conditions -  °F | °C
As of 4:53 AM on Wednesday 22 Oct 2014 (Local Time) from KMCB Reporting Station
Clear Clear  
Wind Chill: 60°   Ceiling: Unl
Heat Index: 60°   Visibility: 10mi
Dew Point: 53°   Wind: 5mph
Humidity: 78%   Direction: 30°NNE
Pressure: 30.07"   Gusts: NA
Location:  31.36°N, 90.21°W
Report Text: KMCB 220953Z AUTO 03004KT 10SM CLR 16/12 A3007 RMK AO2 SLP177 T01560117
Loading
Personal Weather Stations






























Interactive Weather Map
Tropical Storm Tracking
New forecast layout! Learn more

10-Day Weather Forecast

Advertisements
Track Severe Weather on mobile